Time;durP1;ratioP1;P1;durP2;ratioP2;P2;SDS_P1;SDS_P2;PMS_P1;PMS_P2;Temp;Humidity;BMP_temperature;BMP_pressure;BME280_temperature;BME280_humidity;BME280_pressure;Samples;Min_cycle;Max_cycle;Signal;HPM_P1;HPM_P2
2022/09/11 00:01:17;0.00;0.00;0.62;0.00;0.00;0.62;;;;;18.10;2.80;;;;;;2280768;61;1387;-85
2022/09/11 00:03:46;78829.00;0.26;137.01;0.00;0.00;0.62;;;;;18.20;2.60;;;;;;2280898;61;1048;-84
2022/09/11 00:06:15;26906.00;0.09;47.23;0.00;0.00;0.62;;;;;18.40;2.40;;;;;;2280823;61;1123;-84
2022/09/11 00:08:42;589.00;0.00;1.64;0.00;0.00;0.62;;;;;18.80;1.30;;;;;;2280844;61;1157;-84
2022/09/11 00:11:16;0.00;0.00;0.62;0.00;0.00;0.62;;;;;19.10;1.00;;;;;;2280743;61;1403;-84
2022/09/11 00:13:44;0.00;0.00;0.62;0.00;0.00;0.62;;;;;19.20;1.00;;;;;;2280798;61;1162;-84
2022/09/11 00:16:20;0.00;0.00;0.62;0.00;0.00;0.62;;;;;19.10;1.00;;;;;;2280713;61;1919;-84
2022/09/11 00:18:47;0.00;0.00;0.62;0.00;0.00;0.62;;;;;18.70;1.00;;;;;;2280745;61;1038;-85
2022/09/11 00:21:15;0.00;0.00;0.62;0.00;0.00;0.62;;;;;18.60;1.40;;;;;;2280736;61;1284;-85
2022/09/11 00:23:42;0.00;0.00;0.62;0.00;0.00;0.62;;;;;18.70;1.00;;;;;;2280811;61;925;-85
2022/09/11 00:26:11;0.00;0.00;0.62;0.00;0.00;0.62;;;;;18.60;1.00;;;;;;2280747;61;1142;-86
2022/09/11 00:28:38;0.00;0.00;0.62;0.00;0.00;0.62;;;;;18.60;1.00;;;;;;2280706;61;1087;-84
2022/09/11 00:31:07;56656.00;0.19;98.70;0.00;0.00;0.62;;;;;18.60;1.00;;;;;;2280718;61;1269;-85
2022/09/11 00:33:36;193942.00;0.65;335.50;0.00;0.00;0.62;;;;;18.70;1.00;;;;;;2280689;61;1425;-85
2022/09/11 00:36:06;11495.00;0.04;20.54;0.00;0.00;0.62;;;;;18.90;1.00;;;;;;2280637;61;1997;-85
2022/09/11 00:38:36;131396.00;0.44;227.74;0.00;0.00;0.62;;;;;18.90;1.00;;;;;;2280731;61;1104;-85
2022/09/11 00:41:05;399768.00;1.33;689.41;119520.00;0.40;207.25;;;;;18.70;1.00;;;;;;2280666;61;1366;-86
2022/09/11 00:43:52;44459.00;0.15;77.60;0.00;0.00;0.62;;;;;18.80;1.00;;;;;;2280659;61;1097;-85
2022/09/11 00:46:20;52162.00;0.17;90.93;0.00;0.00;0.62;;;;;18.90;1.00;;;;;;2280581;61;1085;-84
2022/09/11 00:48:49;0.00;0.00;0.62;0.00;0.00;0.62;;;;;18.50;1.00;;;;;;2280738;61;1150;-84
2022/09/11 00:51:20;84285.00;0.28;146.44;0.00;0.00;0.62;;;;;18.40;1.00;;;;;;2280602;61;1302;-85
2022/09/11 00:53:49;3536.00;0.01;6.75;0.00;0.00;0.62;;;;;18.10;2.30;;;;;;2280649;61;1552;-84
2022/09/11 00:56:16;68375.00;0.23;118.95;0.00;0.00;0.62;;;;;18.30;1.90;;;;;;2280599;61;1997;-85
2022/09/11 00:58:47;119266.00;0.40;206.82;0.00;0.00;0.62;;;;;18.30;1.70;;;;;;2280681;61;1035;-85
2022/09/11 01:01:15;0.00;0.00;0.62;0.00;0.00;0.62;;;;;18.20;1.90;;;;;;2280570;61;1392;-85
2022/09/11 01:03:42;134562.00;0.45;233.20;14858.00;0.05;26.36;;;;;18.00;1.90;;;;;;2280667;61;1095;-85
2022/09/11 01:06:10;0.00;0.00;0.62;0.00;0.00;0.62;;;;;18.00;1.60;;;;;;2280675;61;1058;-84
2022/09/11 01:08:37;189608.00;0.63;328.03;0.00;0.00;0.62;;;;;18.20;2.10;;;;;;2280635;61;1066;-84
2022/09/11 01:11:20;0.00;0.00;0.62;0.00;0.00;0.62;;;;;18.20;1.40;;;;;;2280540;61;1281;-85
2022/09/11 01:13:55;0.00;0.00;0.62;0.00;0.00;0.62;;;;;18.20;1.00;;;;;;2280609;61;1328;-85
2022/09/11 01:16:34;0.00;0.00;0.62;0.00;0.00;0.62;;;;;18.30;1.20;;;;;;2280471;61;1920;-84
2022/09/11 01:19:12;157983.00;0.53;273.56;0.00;0.00;0.62;;;;;18.40;1.00;;;;;;2280618;61;1054;-86
2022/09/11 01:22:00;11862.00;0.04;21.17;0.00;0.00;0.62;;;;;18.50;1.00;;;;;;2280541;61;1316;-84
2022/09/11 01:24:55;0.00;0.00;0.62;0.00;0.00;0.62;;;;;18.60;1.00;;;;;;2280547;61;1114;-85
2022/09/11 01:27:44;0.00;0.00;0.62;0.00;0.00;0.62;;;;;18.80;1.00;;;;;;2280539;61;1261;-86
2022/09/11 01:30:15;14154.00;0.05;25.15;0.00;0.00;0.62;;;;;18.90;1.00;;;;;;2280410;61;1259;-85
2022/09/11 01:32:54;0.00;0.00;0.62;0.00;0.00;0.62;;;;;19.10;1.00;;;;;;2280515;61;1061;-84
2022/09/11 01:35:30;0.00;0.00;0.62;0.00;0.00;0.62;;;;;19.10;1.00;;;;;;2280537;61;1910;-85
2022/09/11 01:38:03;233974.00;0.78;404.39;61217.00;0.20;106.58;;;;;19.10;1.00;;;;;;2280522;61;1073;-85
2022/09/11 01:40:38;126130.00;0.42;218.66;24764.00;0.08;43.52;;;;;19.20;1.00;;;;;;2280506;61;1430;-85
2022/09/11 01:43:12;0.00;0.00;0.62;0.00;0.00;0.62;;;;;19.10;1.00;;;;;;2280568;61;1137;-84
2022/09/11 01:45:44;49310.00;0.16;85.99;0.00;0.00;0.62;;;;;18.90;1.00;;;;;;2280484;61;2043;-85
2022/09/11 01:48:15;0.00;0.00;0.62;0.00;0.00;0.62;;;;;18.90;1.00;;;;;;2280528;61;1140;-85
2022/09/11 01:50:47;0.00;0.00;0.62;0.00;0.00;0.62;;;;;19.10;1.00;;;;;;2280437;61;1444;-85
2022/09/11 01:53:20;0.00;0.00;0.62;0.00;0.00;0.62;;;;;19.10;1.00;;;;;;2280495;61;1107;-85
2022/09/11 01:55:54;0.00;0.00;0.62;0.00;0.00;0.62;;;;;19.00;1.00;;;;;;2280381;61;1911;-85
2022/09/11 01:58:26;157671.00;0.53;273.03;11345.00;0.04;20.28;;;;;19.20;1.00;;;;;;2280230;61;1082;-86
2022/09/11 02:01:00;54227.00;0.18;94.50;0.00;0.00;0.62;;;;;19.10;1.00;;;;;;2280378;61;1444;-85
2022/09/11 02:03:35;0.00;0.00;0.62;0.00;0.00;0.62;;;;;18.90;1.00;;;;;;2280433;61;1011;-84
2022/09/11 02:06:06;0.00;0.00;0.62;0.00;0.00;0.62;;;;;18.90;1.00;;;;;;2280461;61;1129;-85
2022/09/11 02:08:40;0.00;0.00;0.62;0.00;0.00;0.62;;;;;18.90;1.00;;;;;;2280455;61;1192;-85
2022/09/11 02:11:10;0.00;0.00;0.62;0.00;0.00;0.62;;;;;19.00;1.00;;;;;;2280355;61;1458;-85
2022/09/11 02:13:46;124044.00;0.41;215.06;0.00;0.00;0.62;;;;;19.20;1.00;;;;;;2280427;61;1151;-84
2022/09/11 02:16:20;180472.00;0.60;312.30;0.00;0.00;0.62;;;;;19.20;1.00;;;;;;2280376;61;1915;-85
2022/09/11 02:18:58;169758.00;0.57;293.85;71328.00;0.24;124.06;;;;;18.80;1.00;;;;;;2280437;61;961;-85
2022/09/11 02:21:26;163447.00;0.54;282.98;74834.00;0.25;130.11;;;;;18.60;1.00;;;;;;2280337;61;2331;-87
2022/09/11 02:23:54;183388.00;0.61;317.32;73979.00;0.25;128.64;;;;;18.90;1.00;;;;;;2280396;61;1086;-85
2022/09/11 02:26:24;166265.00;0.55;287.83;71968.00;0.24;125.16;;;;;18.90;1.00;;;;;;2280370;61;1130;-85
2022/09/11 02:28:53;257668.00;0.86;445.14;80024.00;0.27;139.08;;;;;19.10;1.00;;;;;;2280243;61;1140;-86
2022/09/11 02:31:21;197995.00;0.66;342.47;64519.00;0.22;112.29;;;;;19.20;1.00;;;;;;2280261;61;1283;-85
2022/09/11 02:33:49;202441.00;0.67;350.13;76460.00;0.25;132.92;;;;;19.30;1.00;;;;;;2280375;61;1133;-84
2022/09/11 02:36:34;251522.00;0.84;434.57;75434.00;0.25;131.15;;;;;19.20;1.00;;;;;;2280263;61;2008;-85
2022/09/11 02:39:17;179124.00;0.60;309.98;75380.00;0.25;131.06;;;;;19.10;1.00;;;;;;2280359;61;1055;-86
2022/09/11 02:42:01;266908.00;0.89;461.03;71907.00;0.24;125.06;;;;;19.00;1.00;;;;;;2280377;61;1369;-86
2022/09/11 02:44:37;194410.00;0.65;336.30;72778.00;0.24;126.56;;;;;19.20;1.00;;;;;;2280438;61;1158;-85
2022/09/11 02:47:13;169630.00;0.57;293.63;71318.00;0.24;124.04;;;;;19.40;1.00;;;;;;2280408;61;1106;-86
2022/09/11 02:49:52;167707.00;0.56;290.32;71384.00;0.24;124.15;;;;;19.20;1.00;;;;;;2280380;61;1441;-85
2022/09/11 02:52:30;33617.00;0.11;58.84;0.00;0.00;0.62;;;;;19.00;1.00;;;;;;2280302;61;1043;-86
2022/09/11 02:55:08;169480.00;0.56;293.37;71831.00;0.24;124.92;;;;;19.20;1.00;;;;;;2280340;61;1122;-85
2022/09/11 02:57:42;285133.00;0.95;492.36;69015.00;0.23;120.06;;;;;19.50;1.00;;;;;;2280282;61;1990;-85
2022/09/11 03:00:12;241998.00;0.81;418.19;74329.00;0.25;129.24;;;;;19.60;1.00;;;;;;2280285;61;1449;-85
2022/09/11 03:02:42;308602.00;1.03;532.71;72786.00;0.24;126.57;;;;;19.80;1.00;;;;;;2280258;61;1026;-86
2022/09/11 03:05:10;290319.00;0.97;501.28;72058.00;0.24;125.32;;;;;19.90;1.00;;;;;;2280342;61;1127;-86
2022/09/11 03:07:38;117038.00;0.39;202.97;0.00;0.00;0.62;;;;;19.70;1.00;;;;;;2280281;61;1097;-86
2022/09/11 03:10:07;14527.00;0.05;25.79;0.00;0.00;0.62;;;;;19.70;1.00;;;;;;2280913;61;1325;-86
2022/09/11 03:12:34;237361.00;0.79;410.21;74726.00;0.25;129.93;;;;;19.70;1.00;;;;;;2280985;61;1088;-85
2022/09/11 03:15:01;171264.00;0.57;296.44;67734.00;0.23;117.84;;;;;19.80;1.00;;;;;;2280974;61;1086;-87
2022/09/11 03:17:30;371514.00;1.24;640.84;92295.00;0.31;160.27;;;;;19.60;1.00;;;;;;2280936;61;1911;-85
2022/09/11 03:19:56;303540.00;1.01;524.01;39000.00;0.13;68.16;;;;;19.50;1.00;;;;;;2280934;61;1254;-87
2022/09/11 03:22:24;386421.00;1.29;666.46;70702.00;0.24;122.97;;;;;19.50;1.00;;;;;;2280914;61;1600;-87
2022/09/11 03:24:50;290240.00;0.97;501.14;64037.00;0.21;111.46;;;;;19.50;1.00;;;;;;2280994;61;1116;-86
2022/09/11 03:27:17;168913.00;0.56;292.39;70851.00;0.24;123.23;;;;;19.40;1.00;;;;;;2280906;61;947;-87
2022/09/11 03:29:45;317733.00;1.06;548.40;77331.00;0.26;134.43;;;;;19.20;1.00;;;;;;2280848;61;1506;-87
2022/09/11 03:32:12;196913.00;0.66;340.61;76004.00;0.25;132.13;;;;;19.00;1.00;;;;;;2280939;61;1029;-86
2022/09/11 03:34:40;178985.00;0.60;309.74;70688.00;0.24;122.95;;;;;18.90;1.50;;;;;;2280990;61;1004;-85
2022/09/11 03:37:07;446241.00;1.49;769.32;129496.00;0.43;224.46;;;;;18.80;2.00;;;;;;2280851;61;2015;-85
2022/09/11 03:39:34;382439.00;1.27;659.62;73977.00;0.25;128.63;;;;;18.60;3.00;;;;;;2280909;61;1447;-86
2022/09/11 03:42:01;168355.00;0.56;291.43;74217.00;0.25;129.05;;;;;18.50;3.30;;;;;;2280947;61;1111;-86
2022/09/11 03:44:27;239112.00;0.80;413.22;77515.00;0.26;134.74;;;;;18.70;2.80;;;;;;2280874;61;1448;-84
2022/09/11 03:46:56;236720.00;0.79;409.11;82325.00;0.27;143.05;;;;;18.90;1.40;;;;;;2280907;61;1025;-87
2022/09/11 03:49:22;245588.00;0.82;424.36;72989.00;0.24;126.93;;;;;19.10;1.70;;;;;;2280881;61;1071;-87
2022/09/11 03:51:51;489635.00;1.63;843.98;97675.00;0.33;169.56;;;;;19.20;1.00;;;;;;2280854;61;1453;-85
2022/09/11 03:54:18;169979.00;0.57;294.23;74495.00;0.25;129.53;;;;;19.00;1.10;;;;;;2280901;61;1117;-85
2022/09/11 03:56:45;190168.00;0.63;329.00;69629.00;0.23;121.12;;;;;18.80;2.30;;;;;;2280748;61;1911;-86
2022/09/11 03:59:12;236121.00;0.79;408.08;69734.00;0.23;121.30;;;;;18.70;3.20;;;;;;2280821;61;1676;-86
2022/09/11 04:01:39;0.00;0.00;0.62;0.00;0.00;0.62;;;;;18.70;2.90;;;;;;2280859;61;1803;-86
2022/09/11 04:04:05;29488.00;0.10;51.70;0.00;0.00;0.62;;;;;18.80;2.70;;;;;;2280822;61;1560;-85
2022/09/11 04:06:32;179102.00;0.60;309.94;0.00;0.00;0.62;;;;;19.00;2.50;;;;;;2280870;61;1112;-86
2022/09/11 04:09:01;267890.00;0.89;462.72;36376.00;0.12;63.62;;;;;19.00;1.90;;;;;;2280798;61;1039;-85
2022/09/11 04:11:28;128882.00;0.43;223.40;68864.00;0.23;119.80;;;;;19.30;1.00;;;;;;2280811;61;1386;-86
2022/09/11 04:13:55;118242464.00;394.14;66966448.00;127237.00;0.42;220.56;;;;;19.20;1.00;;;;;;2280878;61;1079;-86
2022/09/11 04:16:22;0.00;0.00;0.62;0.00;0.00;0.62;;;;;19.40;1.00;;;;;;2280806;61;1919;-86
2022/09/11 04:18:50;44479.00;0.15;77.64;0.00;0.00;0.62;;;;;19.40;1.00;;;;;;2280800;61;1095;-86
2022/09/11 04:21:18;96807.00;0.32;168.06;21443.00;0.07;37.77;;;;;19.20;1.00;;;;;;2280604;61;1296;-85
2022/09/11 04:23:45;26352.00;0.09;46.27;0.00;0.00;0.62;;;;;19.00;1.00;;;;;;2280735;61;1579;-84
2022/09/11 04:26:19;150091.00;0.50;259.96;13625.00;0.05;24.23;;;;;19.10;1.20;;;;;;2280744;61;1058;-86
2022/09/11 04:28:47;169824.00;0.57;293.96;70054.00;0.23;121.85;;;;;19.20;1.00;;;;;;2280691;61;1007;-85
2022/09/11 04:31:15;229845.00;0.77;397.28;64297.00;0.21;111.90;;;;;19.20;1.00;;;;;;2280703;61;1416;-85
2022/09/11 04:33:42;235426.00;0.78;406.88;80538.00;0.27;139.97;;;;;19.20;1.00;;;;;;2280666;61;1758;-84
2022/09/11 04:36:12;169668.00;0.57;293.69;72549.00;0.24;126.16;;;;;19.10;1.00;;;;;;2280679;61;1098;-85
2022/09/11 04:38:40;192089.00;0.64;332.31;71446.00;0.24;124.26;;;;;18.70;1.40;;;;;;2280689;61;2013;-86
2022/09/11 04:41:08;168340.00;0.56;291.41;73654.00;0.25;128.07;;;;;18.60;2.40;;;;;;2280643;61;1284;-86
2022/09/11 04:43:38;210261.00;0.70;363.58;77349.00;0.26;134.46;;;;;18.50;3.40;;;;;;2280708;61;1036;-86
2022/09/11 04:46:07;179744.00;0.60;311.05;74834.00;0.25;130.11;;;;;18.70;2.60;;;;;;2280708;61;1615;-86
2022/09/11 04:48:37;354045.00;1.18;610.81;72557.00;0.24;126.18;;;;;18.60;2.90;;;;;;2280670;61;1543;-86
2022/09/11 04:51:06;323183.00;1.08;557.77;77788.00;0.26;135.22;;;;;18.80;2.10;;;;;;2280656;61;1298;-84
2022/09/11 04:53:34;215744.00;0.72;373.02;61405.00;0.20;106.91;;;;;19.10;1.10;;;;;;2280641;61;1439;-86
2022/09/11 04:56:02;277967.00;0.93;480.04;77115.00;0.26;134.05;;;;;19.20;1.00;;;;;;2280603;61;1513;-86
2022/09/11 04:58:29;412355.00;1.37;711.05;116938.00;0.39;202.80;;;;;19.10;1.00;;;;;;2280606;61;2011;-86
2022/09/11 05:00:58;226187.00;0.75;390.99;68029.00;0.23;118.35;;;;;19.00;1.00;;;;;;2280575;61;1378;-86
2022/09/11 05:03:25;230386.00;0.77;398.21;74451.00;0.25;129.45;;;;;19.20;1.00;;;;;;2280597;61;1054;-87
2022/09/11 05:05:52;396022.00;1.32;682.97;74615.00;0.25;129.73;;;;;19.40;1.00;;;;;;2280619;61;1569;-86
2022/09/11 05:08:19;184303.00;0.61;318.90;76390.00;0.25;132.80;;;;;19.10;1.00;;;;;;2280688;61;1106;-85
2022/09/11 05:10:47;349032.00;1.16;602.20;68247.00;0.23;118.73;;;;;19.20;1.00;;;;;;2280466;61;1569;-86
2022/09/11 05:13:14;295910.00;0.99;510.89;75645.00;0.25;131.51;;;;;19.20;1.00;;;;;;2280566;61;1130;-85
2022/09/11 05:15:42;256176.00;0.85;442.57;72647.00;0.24;126.33;;;;;19.40;1.00;;;;;;2280638;61;1115;-86
2022/09/11 05:18:11;205629.00;0.69;355.61;75728.00;0.25;131.66;;;;;19.20;1.00;;;;;;2280590;61;1928;-87
2022/09/11 05:20:39;466998.00;1.56;805.02;77249.00;0.26;134.29;;;;;19.20;1.00;;;;;;2280459;61;1562;-85
2022/09/11 05:23:07;183196.00;0.61;316.99;73545.00;0.25;127.89;;;;;19.10;1.00;;;;;;2280537;61;1143;-86
2022/09/11 05:25:35;278401.00;0.93;480.79;71557.00;0.24;124.45;;;;;18.90;2.20;;;;;;2280611;61;1130;-87
2022/09/11 05:28:03;163970.00;0.55;283.88;72306.00;0.24;125.75;;;;;18.80;1.80;;;;;;2280453;61;1096;-85
2022/09/11 05:30:30;322078.00;1.07;555.87;67388.00;0.22;117.25;;;;;19.00;1.10;;;;;;2280527;61;1262;-84
2022/09/11 05:32:57;505140.00;1.68;870.67;80039.00;0.27;139.10;;;;;19.10;1.20;;;;;;2280480;61;1328;-85
2022/09/11 05:35:25;165977.00;0.55;287.34;74952.00;0.25;130.32;;;;;19.00;1.60;;;;;;2280529;61;1041;-85
2022/09/11 05:37:52;209430.00;0.70;362.15;71032.00;0.24;123.54;;;;;19.10;1.60;;;;;;2280507;61;1988;-86
2022/09/11 05:40:19;164776.00;0.55;285.27;77416.00;0.26;134.57;;;;;19.30;1.10;;;;;;2280473;61;1329;-85
2022/09/11 05:42:46;281194.00;0.94;485.59;71950.00;0.24;125.13;;;;;19.30;1.00;;;;;;2280205;61;1359;-85
2022/09/11 05:45:13;169121.00;0.56;292.75;77427.00;0.26;134.59;;;;;19.60;1.00;;;;;;2280586;61;1098;-86
2022/09/11 05:47:41;337648.00;1.13;582.63;70922.00;0.24;123.35;;;;;19.60;1.00;;;;;;2280424;61;1696;-86
2022/09/11 05:50:08;0.00;0.00;0.62;0.00;0.00;0.62;;;;;19.70;1.00;;;;;;2280395;61;1382;-85
2022/09/11 05:52:37;0.00;0.00;0.62;0.00;0.00;0.62;;;;;19.90;1.00;;;;;;2280504;61;931;-85
2022/09/11 05:55:04;169842.00;0.57;293.99;0.00;0.00;0.62;;;;;20.00;1.00;;;;;;2280423;61;1434;-86
2022/09/11 05:57:31;0.00;0.00;0.62;0.00;0.00;0.62;;;;;20.00;1.00;;;;;;2280429;61;1992;-85
2022/09/11 05:59:59;151437.00;0.50;262.28;0.00;0.00;0.62;;;;;20.00;1.00;;;;;;2280275;61;1382;-86
2022/09/11 06:02:26;0.00;0.00;0.62;0.00;0.00;0.62;;;;;20.10;1.00;;;;;;2280406;61;1152;-86
2022/09/11 06:04:53;0.00;0.00;0.62;0.00;0.00;0.62;;;;;20.20;1.00;;;;;;2280391;61;991;-84
2022/09/11 06:07:20;204624.00;0.68;353.88;0.00;0.00;0.62;;;;;20.00;1.00;;;;;;2280413;61;1482;-85
2022/09/11 06:09:48;0.00;0.00;0.62;0.00;0.00;0.62;;;;;20.00;1.00;;;;;;2280327;61;2152;-86
2022/09/11 06:12:17;0.00;0.00;0.62;0.00;0.00;0.62;;;;;20.00;1.00;;;;;;2280469;61;1063;-86
2022/09/11 06:14:44;20717.00;0.07;36.51;0.00;0.00;0.62;;;;;20.10;1.00;;;;;;2280417;61;1017;-85
2022/09/11 06:17:11;257650.00;0.86;445.11;31667.00;0.11;55.47;;;;;20.40;1.00;;;;;;2280310;61;1928;-85
2022/09/11 06:19:37;126652.00;0.42;219.56;0.00;0.00;0.62;;;;;20.30;1.00;;;;;;2280361;61;1801;-86
2022/09/11 06:22:04;0.00;0.00;0.62;0.00;0.00;0.62;;;;;20.10;1.00;;;;;;2280394;61;1032;-86
2022/09/11 06:24:31;51257.00;0.17;89.36;0.00;0.00;0.62;;;;;20.20;1.00;;;;;;2280397;61;1140;-85
2022/09/11 06:26:59;3623.00;0.01;6.90;0.00;0.00;0.62;;;;;20.00;1.00;;;;;;2280376;61;1020;-86
2022/09/11 06:29:26;33899.00;0.11;59.33;0.00;0.00;0.62;;;;;19.90;1.00;;;;;;2280304;61;1012;-85
2022/09/11 06:31:53;730937.00;2.44;1260.93;350430.00;1.17;604.60;;;;;20.00;1.00;;;;;;2280317;61;1731;-85
2022/09/11 06:34:20;56703.00;0.19;98.78;0.00;0.00;0.62;;;;;20.10;1.00;;;;;;2280361;61;874;-85
2022/09/11 06:36:48;133193.00;0.44;230.84;0.00;0.00;0.62;;;;;20.20;1.00;;;;;;2280292;61;1310;-85
2022/09/11 06:39:15;0.00;0.00;0.62;0.00;0.00;0.62;;;;;20.40;1.00;;;;;;2280346;61;2022;-85
2022/09/11 06:41:42;325548.00;1.09;561.83;0.00;0.00;0.62;;;;;20.60;1.00;;;;;;2280254;61;1784;-85
2022/09/11 06:44:10;0.00;0.00;0.62;0.00;0.00;0.62;;;;;20.50;1.00;;;;;;2280172;61;1106;-86
2022/09/11 06:46:39;159215.00;0.53;275.69;0.00;0.00;0.62;;;;;20.50;1.00;;;;;;2280321;61;1023;-86
2022/09/11 06:49:06;3611.00;0.01;6.88;0.00;0.00;0.62;;;;;20.60;1.00;;;;;;2280355;61;1087;-85
2022/09/11 06:51:34;134338.00;0.45;232.81;0.00;0.00;0.62;;;;;20.70;1.00;;;;;;2280246;61;1354;-86
2022/09/11 06:54:02;0.00;0.00;0.62;0.00;0.00;0.62;;;;;20.90;1.00;;;;;;2280321;61;1030;-85
2022/09/11 06:56:31;88715.00;0.30;154.09;0.00;0.00;0.62;;;;;21.00;1.00;;;;;;2280341;61;1118;-85
2022/09/11 06:58:58;0.00;0.00;0.62;0.00;0.00;0.62;;;;;21.00;1.00;;;;;;2280213;61;2232;-85
2022/09/11 07:01:27;132943.00;0.44;230.40;0.00;0.00;0.62;;;;;21.00;1.00;;;;;;2280242;61;1233;-85
2022/09/11 07:03:55;48571.00;0.16;84.71;0.00;0.00;0.62;;;;;21.20;1.00;;;;;;2280265;61;2043;-86
2022/09/11 07:06:24;124508.00;0.42;215.86;0.00;0.00;0.62;;;;;21.30;1.00;;;;;;2280281;61;964;-85
2022/09/11 07:08:52;117803.00;0.39;204.29;29178.00;0.10;51.16;;;;;21.50;1.00;;;;;;2280300;61;1063;-86
2022/09/11 07:11:19;102804.00;0.34;178.41;0.00;0.00;0.62;;;;;21.20;1.00;;;;;;2280199;61;1336;-85
2022/09/11 07:13:46;0.00;0.00;0.62;0.00;0.00;0.62;;;;;21.00;1.00;;;;;;2280299;61;1020;-86
2022/09/11 07:16:13;90235.00;0.30;156.71;0.00;0.00;0.62;;;;;20.70;1.00;;;;;;2280332;61;986;-85
2022/09/11 07:18:43;116183.00;0.39;201.50;0.00;0.00;0.62;;;;;20.90;1.00;;;;;;2280116;61;1990;-86
2022/09/11 07:21:13;167.00;0.00;0.91;0.00;0.00;0.62;;;;;21.00;1.00;;;;;;2280114;61;1392;-86
2022/09/11 07:23:40;14148.00;0.05;25.13;0.00;0.00;0.62;;;;;21.00;1.00;;;;;;2280231;61;1722;-85
2022/09/11 07:26:10;0.00;0.00;0.62;0.00;0.00;0.62;;;;;21.00;1.00;;;;;;2280208;61;1135;-86
2022/09/11 07:28:38;0.00;0.00;0.62;0.00;0.00;0.62;;;;;20.90;1.00;;;;;;2280112;61;1001;-85
2022/09/11 07:31:09;46347.00;0.15;80.87;0.00;0.00;0.62;;;;;20.80;1.00;;;;;;2280059;61;1358;-86
2022/09/11 07:33:36;66055.00;0.22;114.94;0.00;0.00;0.62;;;;;20.90;1.00;;;;;;2280051;61;1033;-85
2022/09/11 07:36:10;163606.00;0.55;283.25;0.00;0.00;0.62;;;;;20.70;1.00;;;;;;2280123;61;1340;-85
2022/09/11 07:38:38;0.00;0.00;0.62;0.00;0.00;0.62;;;;;20.40;1.00;;;;;;2280183;61;1988;-86
2022/09/11 07:41:06;141507.00;0.47;245.17;0.00;0.00;0.62;;;;;20.90;1.00;;;;;;2280082;61;1391;-85
2022/09/11 07:43:33;42322.00;0.14;73.91;0.00;0.00;0.62;;;;;21.10;1.00;;;;;;2280175;61;1114;-85
2022/09/11 07:46:01;76230.00;0.25;132.52;0.00;0.00;0.62;;;;;21.30;1.00;;;;;;2280112;61;963;-86
2022/09/11 07:48:28;139468.00;0.46;241.65;0.00;0.00;0.62;;;;;21.40;1.00;;;;;;2280223;61;931;-86
2022/09/11 07:51:01;7428.00;0.02;13.49;0.00;0.00;0.62;;;;;21.40;1.00;;;;;;2280116;61;1292;-86
2022/09/11 07:53:33;60592.00;0.20;105.50;0.00;0.00;0.62;;;;;21.30;1.00;;;;;;2280019;61;998;-86
2022/09/11 07:56:02;2324.00;0.01;4.65;0.00;0.00;0.62;;;;;21.20;1.00;;;;;;2280531;61;1136;-85
2022/09/11 07:58:32;68678.00;0.23;119.48;0.00;0.00;0.62;;;;;21.30;1.00;;;;;;2280772;61;1988;-85
2022/09/11 08:00:59;237559.00;0.79;410.55;81615.00;0.27;141.83;;;;;21.50;1.00;;;;;;2280817;61;1327;-86
2022/09/11 08:03:26;296105.00;0.99;511.22;72595.00;0.24;126.24;;;;;21.40;1.00;;;;;;2280795;61;1052;-84
2022/09/11 08:05:57;0.00;0.00;0.62;0.00;0.00;0.62;;;;;21.40;1.00;;;;;;2280886;61;1040;-86
2022/09/11 08:08:25;249446.00;0.83;431.00;73597.00;0.25;127.98;;;;;21.60;1.00;;;;;;2280770;61;2058;-86
2022/09/11 08:10:55;225952.00;0.75;390.58;69164.00;0.23;120.32;;;;;21.80;1.00;;;;;;2280746;61;1374;-86
2022/09/11 08:13:22;168361.00;0.56;291.44;72842.00;0.24;126.67;;;;;21.80;1.00;;;;;;2280768;61;1064;-86
2022/09/11 08:15:49;172640.00;0.58;298.81;70831.00;0.24;123.20;;;;;21.70;1.00;;;;;;2280688;61;1033;-85
2022/09/11 08:18:16;159267.00;0.53;275.78;65992.00;0.22;114.83;;;;;21.40;1.00;;;;;;2280584;61;1928;-85
2022/09/11 08:20:44;194178.00;0.65;335.90;72227.00;0.24;125.61;;;;;21.10;1.00;;;;;;2280705;61;1385;-86
2022/09/11 08:23:11;0.00;0.00;0.62;0.00;0.00;0.62;;;;;21.10;1.00;;;;;;2280695;61;974;-85
2022/09/11 08:25:39;0.00;0.00;0.62;0.00;0.00;0.62;;;;;21.30;1.00;;;;;;2280737;61;1625;-86
2022/09/11 08:28:07;134719.00;0.45;233.47;0.00;0.00;0.62;;;;;21.70;1.00;;;;;;2280600;61;1446;-87
2022/09/11 08:30:37;162032.00;0.54;280.54;74317.00;0.25;129.22;;;;;22.00;1.00;;;;;;2280664;61;1403;-85
2022/09/11 08:33:04;271513.00;0.91;468.95;62515.00;0.21;108.82;;;;;21.90;1.00;;;;;;2280637;61;1219;-85
2022/09/11 08:35:32;202578.00;0.68;350.36;69536.00;0.23;120.96;;;;;22.00;1.00;;;;;;2280625;61;1134;-86
2022/09/11 08:37:59;168347.00;0.56;291.42;69196.00;0.23;120.37;;;;;22.20;1.00;;;;;;2280615;61;2012;-86
2022/09/11 08:40:28;361718.00;1.21;624.00;68373.00;0.23;118.95;;;;;22.40;1.00;;;;;;2280647;61;1395;-85
2022/09/11 08:43:00;168659.00;0.56;291.96;76415.00;0.25;132.84;;;;;22.20;1.00;;;;;;2280639;61;1537;-85
2022/09/11 08:45:34;2952.00;0.01;5.74;0.00;0.00;0.62;;;;;22.20;1.00;;;;;;2280666;61;1492;-86
2022/09/11 08:48:02;109253.00;0.36;189.54;0.00;0.00;0.62;;;;;22.50;1.00;;;;;;2280778;61;1132;-86
2022/09/11 08:50:34;130801.00;0.44;226.71;0.00;0.00;0.62;;;;;22.80;1.00;;;;;;2280584;61;1548;-85
2022/09/11 08:53:03;5157.00;0.02;9.56;0.00;0.00;0.62;;;;;22.70;1.00;;;;;;2280706;61;1075;-85
2022/09/11 08:55:38;0.00;0.00;0.62;0.00;0.00;0.62;;;;;22.30;1.00;;;;;;2280666;61;1091;-86
2022/09/11 08:58:14;0.00;0.00;0.62;0.00;0.00;0.62;;;;;22.20;1.00;;;;;;2280623;61;1984;-85
2022/09/11 09:00:49;165221.00;0.55;286.03;72779.00;0.24;126.56;;;;;22.30;1.00;;;;;;2280605;61;1542;-85
2022/09/11 09:03:42;212699.00;0.71;367.78;68907.00;0.23;119.87;;;;;22.50;1.00;;;;;;2280666;61;1141;-86
2022/09/11 09:06:26;202583.00;0.68;350.37;73952.00;0.25;128.59;;;;;22.90;1.00;;;;;;2279941;61;1787;-86
2022/09/11 09:09:06;480033.00;1.60;827.45;164547.00;0.55;284.87;;;;;23.10;1.00;;;;;;2280611;61;1653;-86
2022/09/11 09:11:42;233636.00;0.78;403.80;72486.00;0.24;126.06;;;;;23.50;1.00;;;;;;2280527;61;1532;-85
2022/09/11 09:14:28;296713.00;0.99;512.27;74160.00;0.25;128.95;;;;;23.90;1.00;;;;;;2280541;61;1159;-87
2022/09/11 09:17:02;348595.00;1.16;601.45;69193.00;0.23;120.37;;;;;24.10;1.00;;;;;;2280585;61;1086;-84
2022/09/11 09:19:34;164219.00;0.55;284.31;64524.00;0.22;112.30;;;;;24.10;1.00;;;;;;2280578;61;1920;-83
2022/09/11 09:22:13;171596.00;0.57;297.02;57752.00;0.19;100.59;;;;;24.40;1.00;;;;;;2280450;61;1093;-86
2022/09/11 09:24:46;208696.00;0.70;360.89;75133.00;0.25;130.63;;;;;24.30;1.00;;;;;;2280516;61;1155;-86
2022/09/11 09:27:18;196545.00;0.66;339.98;70789.00;0.24;123.12;;;;;24.30;1.00;;;;;;2280536;61;992;-85
2022/09/11 09:29:51;162666.00;0.54;281.63;65493.00;0.22;113.97;;;;;24.80;1.00;;;;;;2280476;61;1269;-86
2022/09/11 09:32:25;265065.00;0.88;457.86;70646.00;0.24;122.88;;;;;24.80;1.00;;;;;;2280433;61;1290;-85
2022/09/11 09:34:58;294520.00;0.98;508.50;61863.00;0.21;107.70;;;;;24.90;1.00;;;;;;2280287;61;1469;-86
2022/09/11 09:37:27;195997.00;0.65;339.03;70956.00;0.24;123.41;;;;;24.00;1.00;;;;;;2280380;61;1088;-86
2022/09/11 09:39:55;183495.00;0.61;317.51;64266.00;0.21;111.85;;;;;23.80;1.00;;;;;;2280117;61;2022;-86
2022/09/11 09:42:49;222249.00;0.74;384.21;64013.00;0.21;111.41;;;;;24.00;1.00;;;;;;2280254;61;1566;-88
2022/09/11 09:45:47;407436.00;1.36;702.59;62418.00;0.21;108.66;;;;;23.50;1.00;;;;;;2280507;61;1106;-88
2022/09/11 09:48:16;345215.00;1.15;595.64;0.00;0.00;0.62;;;;;23.50;1.00;;;;;;2280478;61;1660;-87
2022/09/11 09:50:44;659661.00;2.20;1137.35;4640.00;0.02;8.66;;;;;23.60;1.00;;;;;;2280418;61;1285;-88
2022/09/11 09:53:27;686464.00;2.29;1183.77;79349.00;0.26;137.91;;;;;23.40;1.00;;;;;;2280502;61;1031;-88
2022/09/11 09:55:55;693817.00;2.31;1196.52;31458.00;0.10;55.11;;;;;22.70;1.00;;;;;;2280424;61;1022;-86
2022/09/11 09:58:25;755171.00;2.52;1303.05;85677.00;0.29;148.84;;;;;22.30;1.00;;;;;;2280378;61;1915;-86
2022/09/11 10:00:52;846651.00;2.82;1462.61;19469.00;0.06;34.35;;;;;22.20;1.00;;;;;;2280320;61;1561;-87
2022/09/11 10:03:22;282805.00;0.94;488.36;64825.00;0.22;112.82;;;;;22.30;1.00;;;;;;2280394;61;1271;-87
2022/09/11 10:05:53;299080.00;1.00;516.34;64550.00;0.22;112.34;;;;;22.00;1.00;;;;;;2280457;61;995;-87